Time;durP1;ratioP1;P1;durP2;ratioP2;P2;SDS_P1;SDS_P2;PMS_P1;PMS_P2;Temp;Humidity;BMP_temperature;BMP_pressure;BME280_temperature;BME280_humidity;BME280_pressure;Samples;Min_cycle;Max_cycle;Signal;HPM_P1;HPM_P2
2021/03/20 00:01:57;;;;;;;7.67;2.57;;;3.20;67.80;;;;;;4977290;28;20117;-89
2021/03/20 00:04:23;;;;;;;5.57;2.37;;;3.20;68.20;;;;;;4977174;28;20041;-89
2021/03/20 00:06:52;;;;;;;6.07;2.60;;;3.20;67.30;;;;;;4977335;28;20543;-88
2021/03/20 00:09:22;;;;;;;6.07;2.42;;;3.20;66.00;;;;;;4978051;28;20030;-91
2021/03/20 00:11:48;;;;;;;7.43;2.53;;;3.10;66.10;;;;;;4976406;28;20435;-88
2021/03/20 00:14:17;;;;;;;10.53;2.30;;;3.00;66.10;;;;;;4976591;28;20030;-88
2021/03/20 00:16:43;;;;;;;7.00;2.30;;;3.10;66.00;;;;;;4977090;28;20030;-90
2021/03/20 00:19:09;;;;;;;7.63;2.10;;;3.10;66.00;;;;;;4976833;28;20080;-90
2021/03/20 00:21:34;;;;;;;6.77;2.17;;;3.10;65.40;;;;;;4975979;28;20093;-91
2021/03/20 00:24:00;;;;;;;6.17;2.03;;;3.10;64.90;;;;;;4977058;28;20102;-89
2021/03/20 00:26:26;;;;;;;6.77;1.93;;;3.00;65.10;;;;;;4976393;28;20455;-90
2021/03/20 00:28:52;;;;;;;8.17;2.07;;;3.00;65.20;;;;;;4976687;28;20433;-90
2021/03/20 00:31:18;;;;;;;5.33;1.80;;;3.00;65.30;;;;;;4976309;28;20057;-90
2021/03/20 00:33:44;;;;;;;4.60;1.77;;;3.00;65.10;;;;;;4976156;28;20038;-90
2021/03/20 00:36:12;;;;;;;5.30;1.97;;;3.00;65.00;;;;;;4976907;28;20030;-90
2021/03/20 00:38:39;;;;;;;7.73;2.10;;;3.00;64.60;;;;;;4976042;28;20476;-90
2021/03/20 00:41:06;;;;;;;7.10;2.23;;;2.90;65.00;;;;;;4978780;28;20022;-90
2021/03/20 00:43:32;;;;;;;6.97;2.87;;;3.00;65.10;;;;;;4982024;28;20037;-89
2021/03/20 00:45:59;;;;;;;7.37;2.57;;;2.90;65.00;;;;;;4979112;28;20029;-89
2021/03/20 00:48:28;;;;;;;8.03;2.60;;;2.80;64.10;;;;;;4976315;28;20117;-90
2021/03/20 00:50:56;;;;;;;8.83;2.47;;;2.80;65.80;;;;;;4975290;28;20030;-90
2021/03/20 00:53:22;;;;;;;7.77;2.50;;;2.80;66.60;;;;;;4974828;28;20100;-91
2021/03/20 00:55:48;;;;;;;7.47;2.30;;;2.80;66.00;;;;;;4974991;28;20109;-90
2021/03/20 00:58:27;;;;;;;7.20;2.40;;;2.80;65.90;;;;;;4974831;28;20081;-89
2021/03/20 01:01:00;;;;;;;6.35;2.40;;;2.80;66.00;;;;;;4975153;28;20022;-90
2021/03/20 01:03:26;;;;;;;7.97;2.53;;;2.70;66.20;;;;;;4974721;28;20613;-89
2021/03/20 01:05:52;;;;;;;6.83;2.27;;;2.70;66.50;;;;;;4975220;28;20153;-90
2021/03/20 01:08:18;;;;;;;7.77;2.20;;;2.70;66.80;;;;;;4974576;28;20022;-90
2021/03/20 01:10:44;;;;;;;7.73;2.40;;;2.70;67.00;;;;;;4974823;28;20022;-90
2021/03/20 01:13:10;;;;;;;6.13;2.37;;;2.70;67.10;;;;;;4977716;28;20077;-90
2021/03/20 01:15:36;;;;;;;5.80;2.10;;;2.70;67.00;;;;;;4978136;28;20034;-89
2021/03/20 01:18:02;;;;;;;10.17;2.97;;;2.70;67.00;;;;;;4978227;28;20130;-90
2021/03/20 01:20:29;;;;;;;6.67;2.33;;;2.70;66.60;;;;;;4977765;28;20491;-90
2021/03/20 01:22:55;;;;;;;5.63;2.10;;;2.60;67.00;;;;;;4978027;28;20084;-90
2021/03/20 01:25:20;;;;;;;8.17;2.30;;;2.60;67.10;;;;;;4978393;28;20121;-90
2021/03/20 01:27:53;;;;;;;9.70;2.20;;;2.60;67.20;;;;;;4978770;28;20194;-89
2021/03/20 01:30:24;;;;;;;9.37;2.83;;;2.60;66.10;;;;;;4958922;28;565800;-91
2021/03/20 01:32:50;;;;;;;6.80;2.80;;;2.50;67.10;;;;;;4980008;28;20109;-90
2021/03/20 01:35:16;;;;;;;8.07;2.50;;;2.60;66.80;;;;;;4979615;28;20125;-90
2021/03/20 01:37:41;;;;;;;6.77;2.33;;;2.50;66.80;;;;;;4979521;28;20021;-90
2021/03/20 01:40:08;;;;;;;8.70;2.20;;;2.50;66.70;;;;;;4979057;28;20077;-90
2021/03/20 01:42:39;;;;;;;9.07;2.43;;;2.60;66.30;;;;;;4979037;28;20027;-91
2021/03/20 01:45:22;;;;;;;9.07;2.30;;;2.60;66.20;;;;;;4979254;28;20439;-91
2021/03/20 01:48:00;;;;;;;6.63;2.30;;;2.50;66.40;;;;;;4979431;28;20037;-90
2021/03/20 01:50:35;;;;;;;7.73;2.30;;;2.60;67.20;;;;;;4979526;28;20027;-90
2021/03/20 01:53:13;;;;;;;6.60;2.43;;;2.50;66.70;;;;;;4980647;28;20033;-89
2021/03/20 01:55:39;;;;;;;9.67;2.23;;;2.60;66.60;;;;;;4983180;28;20085;-90
2021/03/20 01:58:05;;;;;;;7.03;2.43;;;2.60;66.30;;;;;;5000270;28;20019;-90
2021/03/20 02:00:40;;;;;;;9.30;2.70;;;2.50;65.90;;;;;;4982523;28;20448;-90
2021/03/20 02:03:11;;;;;;;7.63;2.30;;;2.50;66.80;;;;;;4978843;28;20399;-89
2021/03/20 02:05:37;;;;;;;9.20;3.33;;;2.40;66.80;;;;;;4977861;28;20405;-90
2021/03/20 02:08:05;;;;;;;9.63;2.90;;;2.40;66.80;;;;;;4978280;28;20030;-90
2021/03/20 02:10:35;;;;;;;9.10;2.70;;;2.50;66.80;;;;;;4977883;28;20113;-91
2021/03/20 02:13:16;;;;;;;;;;;2.50;66.80;;;;;;4978741;28;20480;-90
2021/03/20 02:15:49;;;;;;;8.67;2.70;;;2.50;66.80;;;;;;4978357;28;19960;-90
2021/03/20 02:18:37;;;;;;;8.40;2.50;;;2.40;67.10;;;;;;4978003;28;20022;-88
2021/03/20 02:21:19;;;;;;;9.90;2.70;;;2.30;67.30;;;;;;4978136;28;20408;-90
2021/03/20 02:24:06;;;;;;;8.07;2.47;;;2.30;67.70;;;;;;4977623;28;20118;-90
2021/03/20 02:27:13;;;;;;;7.60;2.20;;;2.30;67.80;;;;;;4977978;28;20030;-89
2021/03/20 02:29:57;;;;;;;9.20;2.60;;;2.30;68.10;;;;;;4977318;28;20031;-91
2021/03/20 02:32:35;;;;;;;11.07;2.97;;;2.20;68.10;;;;;;4978723;28;20018;-90
2021/03/20 02:35:11;;;;;;;7.23;2.57;;;2.20;68.10;;;;;;4977311;28;20026;-89
2021/03/20 02:38:02;;;;;;;7.37;2.30;;;2.20;68.00;;;;;;4977936;28;20026;-90
2021/03/20 02:40:40;;;;;;;9.73;3.33;;;2.20;68.00;;;;;;4978042;28;20034;-89
2021/03/20 02:43:25;;;;;;;10.50;2.80;;;2.30;67.80;;;;;;4978839;28;20045;-89
2021/03/20 02:46:00;;;;;;;10.00;2.90;;;2.30;67.80;;;;;;4979044;28;20388;-90
2021/03/20 02:48:47;;;;;;;10.00;2.90;;;2.20;67.90;;;;;;4978734;28;20026;-90
2021/03/20 02:51:27;;;;;;;10.53;2.87;;;2.30;67.60;;;;;;4978563;28;20026;-89
2021/03/20 02:53:59;;;;;;;8.93;2.87;;;2.30;67.80;;;;;;4978259;28;20503;-91
2021/03/20 02:56:30;;;;;;;8.40;2.60;;;2.30;67.50;;;;;;4977428;28;20022;-89
2021/03/20 02:59:06;;;;;;;7.33;2.40;;;2.30;67.30;;;;;;4977431;28;20077;-90
2021/03/20 03:01:32;;;;;;;7.87;2.70;;;2.30;67.30;;;;;;4995337;28;20105;-89
2021/03/20 03:04:00;;;;;;;7.97;2.30;;;2.30;67.10;;;;;;4977816;28;20282;-90
2021/03/20 03:06:34;;;;;;;6.70;2.50;;;2.30;67.30;;;;;;4977375;28;20030;-90
2021/03/20 03:09:05;;;;;;;7.90;2.30;;;2.30;67.30;;;;;;4978039;28;20023;-90
2021/03/20 03:12:13;;;;;;;6.80;2.20;;;2.30;67.00;;;;;;4979241;28;20026;-90
2021/03/20 03:14:45;;;;;;;9.90;2.47;;;2.30;66.80;;;;;;4968757;28;20034;-90
2021/03/20 03:17:13;;;;;;;8.27;2.87;;;2.30;66.80;;;;;;4978885;28;20018;-90
2021/03/20 03:19:53;;;;;;;4.90;2.10;;;2.20;67.00;;;;;;4978560;28;20113;-90
2021/03/20 03:22:24;;;;;;;8.27;2.47;;;2.10;67.20;;;;;;4978623;28;20050;-88
2021/03/20 03:24:53;;;;;;;6.63;2.43;;;1.90;67.50;;;;;;4978399;28;20045;-89
2021/03/20 03:27:20;;;;;;;8.63;2.88;;;2.00;68.00;;;;;;4979122;28;20186;-89
2021/03/20 03:29:46;;;;;;;10.17;2.93;;;2.00;67.90;;;;;;4978594;28;20068;-88
2021/03/20 03:32:20;;;;;;;9.30;2.60;;;2.00;68.10;;;;;;4976667;28;20084;-89
2021/03/20 03:35:15;;;;;;;7.50;2.60;;;2.00;68.00;;;;;;4975312;28;20031;-90
2021/03/20 03:37:52;;;;;;;6.60;2.50;;;1.90;68.40;;;;;;4974006;28;20114;-89
2021/03/20 03:40:45;;;;;;;10.57;2.60;;;1.90;68.50;;;;;;4976014;28;20042;-89
2021/03/20 03:43:11;;;;;;;8.93;2.40;;;1.90;68.20;;;;;;4975619;28;20034;-89
2021/03/20 03:45:37;;;;;;;6.67;2.60;;;1.90;68.50;;;;;;4976074;28;20057;-88
2021/03/20 03:48:04;;;;;;;5.77;2.40;;;1.90;68.40;;;;;;4976244;28;20033;-89
2021/03/20 03:50:34;;;;;;;8.00;2.20;;;1.90;68.30;;;;;;4975805;28;20109;-89
2021/03/20 03:53:03;;;;;;;7.13;2.30;;;1.90;68.40;;;;;;4976134;28;20033;-90
2021/03/20 03:55:29;;;;;;;8.98;2.47;;;1.90;68.60;;;;;;4993676;28;20430;-90
2021/03/20 03:58:20;;;;;;;10.40;2.60;;;1.90;68.50;;;;;;4976031;28;20036;-89
2021/03/20 04:00:57;;;;;;;9.80;2.73;;;1.90;69.10;;;;;;4993144;28;20456;-89
2021/03/20 04:03:50;;;;;;;7.90;3.10;;;1.90;68.80;;;;;;4975788;28;20026;-89
2021/03/20 04:06:53;;;;;;;8.53;2.10;;;1.90;68.90;;;;;;4975560;28;20037;-89
2021/03/20 04:09:41;;;;;;;6.97;2.50;;;1.90;69.00;;;;;;4975418;28;20084;-89
2021/03/20 04:12:46;;;;;;;8.53;2.37;;;1.80;69.00;;;;;;4975883;28;20074;-89
2021/03/20 04:15:20;;;;;;;10.97;2.53;;;1.90;68.90;;;;;;4976261;28;20494;-89
2021/03/20 04:17:45;;;;;;;9.53;2.70;;;1.90;68.80;;;;;;4976243;28;20030;-89
2021/03/20 04:20:35;;;;;;;8.63;2.63;;;1.90;68.80;;;;;;4976793;28;20383;-88
2021/03/20 04:23:17;;;;;;;7.10;2.60;;;1.90;68.80;;;;;;4977121;28;20046;-89
2021/03/20 04:26:11;;;;;;;7.70;2.33;;;2.00;68.50;;;;;;4977093;28;20030;-88
2021/03/20 04:28:53;;;;;;;6.53;2.23;;;2.00;68.50;;;;;;4977456;28;20065;-88
2021/03/20 04:31:30;;;;;;;7.47;2.50;;;1.90;68.60;;;;;;4985003;28;20512;-89
2021/03/20 04:34:15;;;;;;;5.83;2.57;;;1.90;68.60;;;;;;4990546;28;20054;-89
2021/03/20 04:36:46;;;;;;;7.53;2.23;;;1.90;68.80;;;;;;4991815;28;20026;-88
2021/03/20 04:39:16;;;;;;;8.33;2.83;;;1.90;69.00;;;;;;4984818;28;20487;-88
2021/03/20 04:41:42;;;;;;;13.03;2.90;;;1.80;69.00;;;;;;4982174;28;20019;-89
2021/03/20 04:44:08;;;;;;;9.50;2.80;;;1.80;69.20;;;;;;4979408;28;20077;-90
2021/03/20 04:46:36;;;;;;;8.13;2.60;;;1.80;69.30;;;;;;4977319;28;20030;-88
2021/03/20 04:49:27;;;;;;;8.50;2.60;;;1.80;69.20;;;;;;4979370;28;20026;-89
2021/03/20 04:52:02;;;;;;;7.70;2.37;;;1.80;69.20;;;;;;4979537;28;20030;-89
2021/03/20 04:54:28;;;;;;;12.07;2.50;;;1.80;69.30;;;;;;4979367;28;20022;-90
2021/03/20 04:56:58;;;;;;;6.53;2.30;;;1.80;69.30;;;;;;4979403;28;20037;-89
2021/03/20 04:59:52;;;;;;;9.40;2.73;;;1.80;69.00;;;;;;4979328;28;20145;-89
2021/03/20 05:02:38;;;;;;;6.50;2.23;;;1.80;69.10;;;;;;4979568;28;20396;-90
2021/03/20 05:05:14;;;;;;;8.73;2.47;;;1.80;69.30;;;;;;4996534;28;20252;-89
2021/03/20 05:07:40;;;;;;;8.47;2.33;;;1.80;69.10;;;;;;4979043;28;20053;-89
2021/03/20 05:10:09;;;;;;;6.40;2.30;;;1.80;69.20;;;;;;4979465;28;20108;-89
2021/03/20 05:12:35;;;;;;;6.68;2.40;;;1.80;69.00;;;;;;4996935;28;20041;-88
2021/03/20 05:15:30;;;;;;;9.60;2.77;;;1.80;69.00;;;;;;4978939;28;20030;-89
2021/03/20 05:17:56;;;;;;;8.77;2.30;;;1.80;68.80;;;;;;4979316;28;20030;-89
2021/03/20 05:20:23;;;;;;;8.97;2.87;;;1.80;68.80;;;;;;4980691;28;20173;-89
2021/03/20 05:22:49;;;;;;;8.53;2.47;;;1.80;69.00;;;;;;4996741;28;20105;-88
2021/03/20 05:25:20;;;;;;;9.37;2.60;;;1.70;69.00;;;;;;4979875;28;20476;-89
2021/03/20 05:27:45;;;;;;;11.30;3.30;;;1.70;69.20;;;;;;4980081;28;20137;-89
2021/03/20 05:30:13;;;;;;;7.63;2.97;;;1.70;69.40;;;;;;4980478;28;20508;-89
2021/03/20 05:32:39;;;;;;;10.37;2.57;;;1.70;69.40;;;;;;4979367;28;20029;-89
2021/03/20 05:35:09;;;;;;;8.00;2.70;;;1.70;69.20;;;;;;4996897;28;20030;-89
2021/03/20 05:37:38;;;;;;;10.67;3.20;;;1.70;69.30;;;;;;4979428;28;20019;-89
2021/03/20 05:40:07;;;;;;;10.60;3.05;;;1.70;69.40;;;;;;4979325;28;20073;-89
2021/03/20 05:43:14;;;;;;;9.50;3.17;;;1.70;69.30;;;;;;4977646;28;20118;-89
2021/03/20 05:46:12;;;;;;;13.30;4.07;;;1.70;69.10;;;;;;4978047;28;20030;-89
2021/03/20 05:48:48;;;;;;;9.57;2.93;;;1.50;68.90;;;;;;4995211;28;20026;-89
2021/03/20 05:51:28;;;;;;;10.00;3.20;;;1.60;69.40;;;;;;4978135;28;20507;-90
2021/03/20 05:54:21;;;;;;;11.13;3.30;;;1.60;69.20;;;;;;4996055;28;20026;-89
2021/03/20 05:56:59;;;;;;;11.20;2.87;;;1.60;69.30;;;;;;4977983;28;20030;-88
2021/03/20 05:59:50;;;;;;;8.10;2.85;;;1.60;69.20;;;;;;4978073;28;20023;-89
2021/03/20 06:02:40;;;;;;;8.03;2.87;;;1.60;69.50;;;;;;4977832;28;20423;-89
2021/03/20 06:05:22;;;;;;;8.93;2.93;;;1.60;69.30;;;;;;4978089;28;20030;-88
2021/03/20 06:08:09;;;;;;;10.27;3.47;;;1.70;69.20;;;;;;4978534;28;20097;-89
2021/03/20 06:10:54;;;;;;;11.07;3.13;;;1.60;69.40;;;;;;4978765;28;20033;-88
2021/03/20 06:13:41;;;;;;;10.40;3.10;;;1.60;69.60;;;;;;4977943;28;20018;-89
2021/03/20 06:16:20;;;;;;;8.10;2.40;;;1.60;69.80;;;;;;4978603;28;20030;-89
2021/03/20 06:18:51;;;;;;;9.55;3.20;;;1.60;69.90;;;;;;4977795;28;20027;-89
2021/03/20 06:22:00;;;;;;;10.97;3.23;;;1.70;69.70;;;;;;4978282;28;20085;-89
2021/03/20 06:24:42;;;;;;;8.85;2.60;;;1.60;69.90;;;;;;4977936;28;20026;-88
2021/03/20 06:27:19;;;;;;;12.13;2.80;;;1.60;70.00;;;;;;4977759;28;20084;-89
2021/03/20 06:30:25;;;;;;;8.07;2.80;;;1.60;69.90;;;;;;4977692;28;20057;-89
2021/03/20 06:32:52;;;;;;;9.40;2.70;;;1.70;70.10;;;;;;4977429;28;20480;-88
2021/03/20 06:35:18;;;;;;;9.83;2.80;;;1.60;70.00;;;;;;4976883;28;20314;-89
2021/03/20 06:37:52;;;;;;;11.70;2.80;;;1.60;70.10;;;;;;4977573;28;20317;-90
2021/03/20 06:40:34;;;;;;;8.70;2.77;;;1.70;70.00;;;;;;4978156;28;20081;-90
2021/03/20 06:42:59;;;;;;;7.40;2.53;;;1.60;70.20;;;;;;4977610;28;20033;-89
2021/03/20 06:45:31;;;;;;;10.33;3.23;;;1.60;70.40;;;;;;4994896;28;20030;-88
2021/03/20 06:48:09;;;;;;;9.03;2.83;;;1.60;70.50;;;;;;4977073;28;20031;-88
2021/03/20 06:50:41;;;;;;;7.60;2.63;;;1.70;70.90;;;;;;4977398;28;20087;-89
2021/03/20 06:53:09;;;;;;;8.00;2.90;;;1.70;69.90;;;;;;4977178;28;20037;-90
2021/03/20 06:55:41;;;;;;;9.97;3.03;;;1.70;70.00;;;;;;4976970;28;20042;-88
2021/03/20 06:58:25;;;;;;;9.43;2.87;;;1.70;69.90;;;;;;4976690;28;20022;-89
2021/03/20 07:00:51;;;;;;;12.63;2.57;;;1.80;69.90;;;;;;4977659;28;20033;-90
2021/03/20 07:03:23;;;;;;;7.77;2.60;;;1.80;69.60;;;;;;4976846;28;20393;-88
2021/03/20 07:06:03;;;;;;;8.13;2.70;;;1.80;69.60;;;;;;4976720;28;20033;-89
2021/03/20 07:08:59;;;;;;;9.10;3.00;;;1.80;69.80;;;;;;4975963;28;20121;-89
2021/03/20 07:11:34;;;;;;;11.07;2.80;;;1.90;69.60;;;;;;4961581;28;20047;-88
2021/03/20 07:14:04;;;;;;;10.37;3.07;;;1.90;69.70;;;;;;4977254;28;20103;-88
2021/03/20 07:16:31;;;;;;;10.02;2.90;;;1.80;69.80;;;;;;4994589;28;20423;-89
2021/03/20 07:19:12;;;;;;;9.00;2.90;;;1.80;70.00;;;;;;4977331;28;20085;-88
2021/03/20 07:21:40;;;;;;;11.87;3.40;;;1.80;70.10;;;;;;4977969;28;20022;-89
2021/03/20 07:24:29;;;;;;;10.00;3.33;;;1.90;70.10;;;;;;4977179;28;20507;-89
2021/03/20 07:26:59;;;;;;;12.23;2.72;;;2.00;69.90;;;;;;4995675;28;20037;-89
2021/03/20 07:29:43;;;;;;;;;;;2.00;69.90;;;;;;4981150;28;20408;-88
2021/03/20 07:32:16;;;;;;;11.07;3.60;;;1.90;70.30;;;;;;4989486;28;19906;-89
2021/03/20 07:34:42;;;;;;;15.30;3.20;;;1.90;70.20;;;;;;4991696;28;20026;-89
2021/03/20 07:37:13;;;;;;;56.00;8.03;;;1.90;70.40;;;;;;4990816;28;20026;-89
2021/03/20 07:39:54;;;;;;;19.63;3.80;;;2.00;70.40;;;;;;4978283;28;20019;-89
2021/03/20 07:42:35;;;;;;;11.77;3.20;;;2.10;70.40;;;;;;4977696;28;20046;-89
2021/03/20 07:45:18;;;;;;;8.47;2.47;;;2.20;70.40;;;;;;4977649;28;20093;-88
2021/03/20 07:48:00;;;;;;;31.63;4.50;;;2.30;70.10;;;;;;4977779;28;20231;-89
2021/03/20 07:50:40;;;;;;;12.80;2.90;;;2.30;69.80;;;;;;4977306;28;20034;-88
2021/03/20 07:53:18;;;;;;;10.53;3.13;;;2.40;69.70;;;;;;4977372;28;20022;-88
2021/03/20 07:56:12;;;;;;;10.88;3.22;;;2.50;69.70;;;;;;4977146;28;20492;-88
2021/03/20 07:58:49;;;;;;;10.00;2.93;;;2.60;69.40;;;;;;4977138;28;20034;-89
2021/03/20 08:01:20;;;;;;;11.13;3.40;;;2.60;69.30;;;;;;4977275;28;20065;-89
2021/03/20 08:03:55;;;;;;;7.63;2.50;;;2.60;69.40;;;;;;4978149;28;20030;-88
2021/03/20 08:06:31;;;;;;;25.10;3.60;;;2.60;69.50;;;;;;4978054;28;20051;-89
2021/03/20 08:09:23;;;;;;;20.53;3.80;;;2.70;69.30;;;;;;4978020;28;20030;-89
2021/03/20 08:12:12;;;;;;;10.73;3.30;;;2.70;69.10;;;;;;4978269;28;20032;-88
2021/03/20 08:14:41;;;;;;;8.83;2.93;;;2.80;68.80;;;;;;4988368;28;20045;-88
2021/03/20 08:17:12;;;;;;;8.10;2.20;;;2.90;69.00;;;;;;4994028;28;20430;-88
2021/03/20 08:19:38;;;;;;;9.47;2.70;;;2.90;68.90;;;;;;4993535;28;20030;-87
2021/03/20 08:22:31;;;;;;;7.30;2.27;;;3.00;67.70;;;;;;5003974;28;20038;-88
2021/03/20 08:25:34;;;;;;;12.93;2.90;;;3.00;68.20;;;;;;4976138;28;20026;-89
2021/03/20 08:28:25;;;;;;;7.67;2.77;;;3.10;67.70;;;;;;4977275;28;20026;-90
2021/03/20 08:30:51;;;;;;;9.23;2.50;;;3.10;68.20;;;;;;4965942;28;20475;-88
2021/03/20 08:33:42;;;;;;;9.50;2.67;;;3.10;67.60;;;;;;4955095;28;20035;-88
2021/03/20 08:36:32;;;;;;;9.00;2.50;;;3.20;66.60;;;;;;4948826;28;20038;-90
2021/03/20 08:39:16;;;;;;;;;;;3.20;67.10;;;;;;4953898;28;20031;-88
2021/03/20 08:41:51;;;;;;;10.27;2.63;;;3.20;67.10;;;;;;4952304;28;20390;-89
2021/03/20 08:44:27;;;;;;;8.70;2.30;;;3.20;66.80;;;;;;4955723;28;20023;-90
2021/03/20 08:46:59;;;;;;;7.93;2.40;;;3.30;67.00;;;;;;4956442;28;20046;-90
2021/03/20 08:49:55;;;;;;;7.30;2.57;;;3.40;67.20;;;;;;4944717;28;20039;-90
2021/03/20 08:52:34;;;;;;;8.47;2.23;;;3.40;66.00;;;;;;4937178;29;20031;-90
2021/03/20 08:55:20;;;;;;;7.13;2.47;;;3.50;67.40;;;;;;4936079;29;20059;-90
2021/03/20 08:57:54;;;;;;;8.07;2.67;;;3.50;66.40;;;;;;4947688;28;20031;-90
2021/03/20 09:00:31;;;;;;;9.93;2.70;;;3.60;67.00;;;;;;4956226;28;20023;-90
2021/03/20 09:03:07;;;;;;;5.20;1.73;;;3.70;65.70;;;;;;4956170;28;20058;-90
2021/03/20 09:05:44;;;;;;;8.90;2.30;;;3.70;65.00;;;;;;4955912;28;20030;-89
2021/03/20 09:08:30;;;;;;;8.07;2.47;;;3.80;64.60;;;;;;4956174;28;20098;-90
2021/03/20 09:11:16;;;;;;;8.90;2.47;;;3.80;64.30;;;;;;4955884;28;20035;-90
2021/03/20 09:13:55;;;;;;;6.53;2.10;;;3.80;64.60;;;;;;4956216;28;20031;-90
2021/03/20 09:16:44;;;;;;;6.22;2.08;;;3.90;63.90;;;;;;4955435;28;20023;-90
2021/03/20 09:19:18;;;;;;;;;;;4.00;64.20;;;;;;4947928;28;20082;-90
2021/03/20 09:21:44;;;;;;;6.50;1.93;;;4.00;61.60;;;;;;4955859;28;20000;-90
2021/03/20 09:24:24;;;;;;;9.20;2.47;;;4.10;62.80;;;;;;4955731;28;20030;-89
2021/03/20 09:26:52;;;;;;;7.20;2.40;;;4.20;63.80;;;;;;4956116;28;20034;-90
2021/03/20 09:29:37;;;;;;;8.43;2.30;;;4.20;64.30;;;;;;4956405;28;20078;-90
2021/03/20 09:32:12;;;;;;;6.53;2.20;;;4.30;61.80;;;;;;4975391;28;20492;-90
2021/03/20 09:34:52;;;;;;;7.40;2.20;;;4.40;61.00;;;;;;4978267;28;20034;-91
2021/03/20 09:37:18;;;;;;;6.30;2.10;;;4.60;63.70;;;;;;4978602;28;20053;-90
2021/03/20 09:39:46;;;;;;;6.87;2.07;;;4.70;60.80;;;;;;4978942;28;20030;-90
2021/03/20 09:42:27;;;;;;;7.90;1.90;;;4.80;59.60;;;;;;4979284;28;20081;-90
2021/03/20 09:45:05;;;;;;;6.47;1.93;;;4.90;58.20;;;;;;4978226;28;20612;-90
2021/03/20 09:47:31;;;;;;;8.40;2.13;;;4.90;59.30;;;;;;4979797;28;20022;-90
2021/03/20 09:50:09;;;;;;;6.07;1.90;;;4.90;61.10;;;;;;4979455;28;20040;-90
2021/03/20 09:52:42;;;;;;;8.60;2.10;;;4.90;59.40;;;;;;4978333;28;20057;-90
2021/03/20 09:55:32;;;;;;;7.50;1.83;;;5.00;58.00;;;;;;4977941;28;20031;-89
2021/03/20 09:57:59;;;;;;;4.77;2.03;;;5.10;58.00;;;;;;4978692;28;20031;-90
2021/03/20 10:00:47;;;;;;;6.10;2.17;;;5.20;58.00;;;;;;4978209;28;20068;-90
2021/03/20 10:03:49;;;;;;;5.97;2.10;;;5.30;58.20;;;;;;4978424;28;20022;-91
2021/03/20 10:06:38;;;;;;;6.90;2.10;;;5.30;57.70;;;;;;4978139;28;20031;-90
2021/03/20 10:09:07;;;;;;;5.47;1.90;;;5.30;56.30;;;;;;4978333;28;20452;-91
2021/03/20 10:11:50;;;;;;;6.55;2.58;;;5.30;58.00;;;;;;4977722;28;20502;-90
2021/03/20 10:14:38;;;;;;;4.17;1.87;;;5.40;58.50;;;;;;4978515;28;20037;-90
2021/03/20 10:17:33;;;;;;;5.10;1.90;;;5.40;56.70;;;;;;4978352;28;20034;-90
2021/03/20 10:20:17;;;;;;;5.83;2.03;;;5.50;57.20;;;;;;4961900;28;20045;-90
2021/03/20 10:22:59;;;;;;;6.23;2.30;;;5.60;55.80;;;;;;4978059;28;20041;-90
2021/03/20 10:25:25;;;;;;;6.53;2.20;;;5.70;54.80;;;;;;4978275;28;20038;-89
2021/03/20 10:27:59;;;;;;;8.97;2.40;;;5.80;56.40;;;;;;4978587;28;20381;-89
2021/03/20 10:30:31;;;;;;;9.17;2.30;;;5.80;53.50;;;;;;4978434;28;20090;-90
2021/03/20 10:32:59;;;;;;;7.03;2.17;;;6.00;56.10;;;;;;4977666;28;20042;-90
2021/03/20 10:35:26;;;;;;;10.13;2.70;;;6.10;55.90;;;;;;4978286;28;20068;-90
2021/03/20 10:37:53;;;;;;;6.87;2.03;;;6.20;57.60;;;;;;4978679;28;20031;-90
2021/03/20 10:40:24;;;;;;;6.83;2.37;;;6.30;56.30;;;;;;4978446;28;20129;-91
2021/03/20 10:42:55;;;;;;;9.33;2.60;;;6.40;55.30;;;;;;4977128;28;20110;-91
2021/03/20 10:45:32;;;;;;;9.40;2.70;;;6.50;54.20;;;;;;4976526;28;20092;-90
2021/03/20 10:48:01;;;;;;;7.57;2.60;;;6.60;54.70;;;;;;4978202;28;20042;-90
2021/03/20 10:50:41;;;;;;;11.40;2.72;;;6.60;55.70;;;;;;4978548;28;20555;-90
2021/03/20 10:53:16;;;;;;;8.17;2.50;;;6.70;56.70;;;;;;4978577;28;20030;-90
2021/03/20 10:55:50;;;;;;;7.43;2.60;;;6.60;58.60;;;;;;4979096;28;20396;-90
2021/03/20 10:58:26;;;;;;;6.17;2.50;;;6.60;55.40;;;;;;4978691;28;20029;-90
2021/03/20 11:00:52;;;;;;;8.57;2.73;;;6.50;56.80;;;;;;4982641;28;20027;-90
2021/03/20 11:03:40;;;;;;;8.13;2.60;;;6.60;58.40;;;;;;4989933;28;20086;-90
2021/03/20 11:06:09;;;;;;;8.73;2.87;;;6.60;57.40;;;;;;4988472;28;20507;-90
2021/03/20 11:08:35;;;;;;;9.70;2.83;;;6.60;57.70;;;;;;4993530;28;20045;-91
2021/03/20 11:11:13;;;;;;;8.40;2.70;;;6.60;56.70;;;;;;4984778;28;20108;-90
2021/03/20 11:13:48;;;;;;;10.93;2.77;;;6.70;58.20;;;;;;4977136;28;20031;-90
2021/03/20 11:16:23;;;;;;;8.10;2.70;;;6.60;58.50;;;;;;4978288;28;20034;-90
2021/03/20 11:18:54;;;;;;;10.60;3.30;;;6.60;56.90;;;;;;4978177;28;20077;-91
2021/03/20 11:21:24;;;;;;;9.77;3.30;;;6.60;58.80;;;;;;4978299;28;20089;-90
2021/03/20 11:24:02;;;;;;;9.50;3.10;;;6.60;56.40;;;;;;4978604;28;20098;-90
2021/03/20 11:26:34;;;;;;;8.97;3.00;;;6.60;57.80;;;;;;4978812;28;20057;-91
2021/03/20 11:29:02;;;;;;;11.27;3.07;;;6.70;58.30;;;;;;4977270;28;20022;-90
2021/03/20 11:31:33;;;;;;;7.67;2.80;;;6.70;58.10;;;;;;4976763;28;20475;-90
2021/03/20 11:33:58;;;;;;;13.23;3.50;;;6.70;57.50;;;;;;4976194;28;20109;-90
2021/03/20 11:36:25;;;;;;;10.13;3.10;;;6.70;57.90;;;;;;4976654;28;20109;-90
2021/03/20 11:38:52;;;;;;;7.97;2.67;;;6.80;59.00;;;;;;4976707;28;20564;-90
2021/03/20 11:41:22;;;;;;;8.07;3.00;;;6.90;58.60;;;;;;4977076;28;20023;-90
2021/03/20 11:43:57;;;;;;;12.87;3.20;;;6.90;58.00;;;;;;4976322;28;20053;-90
2021/03/20 11:46:29;;;;;;;11.93;3.37;;;6.90;58.20;;;;;;4976134;28;20022;-90
2021/03/20 11:48:59;;;;;;;9.87;3.10;;;6.90;56.50;;;;;;4976619;28;20034;-90
2021/03/20 11:51:36;;;;;;;9.40;3.50;;;6.90;58.70;;;;;;4976864;28;20076;-90
2021/03/20 11:54:28;;;;;;;14.40;5.33;;;7.00;58.70;;;;;;4975291;28;20037;-90
2021/03/20 11:57:17;;;;;;;15.53;5.53;;;6.90;58.00;;;;;;4967186;28;20070;-91
2021/03/20 11:59:44;;;;;;;;;;;7.00;59.00;;;;;;4962788;28;20133;-90
2021/03/20 12:02:32;;;;;;;9.07;3.50;;;7.00;56.20;;;;;;4975475;28;20355;-91
2021/03/20 12:05:12;;;;;;;10.23;3.40;;;7.00;58.90;;;;;;4993032;28;20454;-90
2021/03/20 12:07:38;;;;;;;7.70;3.50;;;7.00;59.70;;;;;;4975971;28;20026;-91
2021/03/20 12:10:20;;;;;;;10.40;3.80;;;7.00;58.80;;;;;;4976117;28;20049;-90
2021/03/20 12:12:53;;;;;;;12.37;4.27;;;7.00;58.80;;;;;;4975264;28;20081;-91
2021/03/20 12:15:35;;;;;;;8.17;3.40;;;7.10;59.70;;;;;;4975605;28;20030;-90
2021/03/20 12:18:13;;;;;;;8.40;3.50;;;7.10;59.40;;;;;;4975640;28;20161;-90
2021/03/20 12:20:42;;;;;;;9.70;3.67;;;7.10;60.00;;;;;;4975994;28;20530;-90
2021/03/20 12:23:14;;;;;;;9.37;3.77;;;7.00;59.40;;;;;;4975177;28;20018;-91
2021/03/20 12:25:57;;;;;;;7.23;3.10;;;7.10;60.30;;;;;;4975504;28;20026;-90
2021/03/20 12:28:37;;;;;;;7.83;3.20;;;7.10;60.40;;;;;;4975877;28;20026;-90
2021/03/20 12:31:08;;;;;;;;;;;7.10;60.30;;;;;;4975962;28;20046;-90
2021/03/20 12:34:01;;;;;;;13.27;5.10;;;7.10;57.50;;;;;;4975152;28;19912;-90
2021/03/20 12:36:48;;;;;;;11.60;4.60;;;7.10;60.50;;;;;;4975472;28;20513;-90
2021/03/20 12:39:23;;;;;;;8.83;3.50;;;7.10;58.70;;;;;;4975859;28;20026;-90
2021/03/20 12:41:53;;;;;;;9.87;3.83;;;7.10;58.80;;;;;;4975534;28;20030;-90
2021/03/20 12:44:27;;;;;;;12.97;4.17;;;7.20;60.80;;;;;;4975787;28;20030;-90
2021/03/20 12:46:59;;;;;;;9.73;3.67;;;7.20;60.10;;;;;;4976061;28;20472;-90
2021/03/20 12:49:30;;;;;;;9.63;3.50;;;7.20;60.90;;;;;;4975468;28;20030;-90
2021/03/20 12:52:05;;;;;;;7.33;3.37;;;7.20;60.90;;;;;;4976086;28;20093;-90
2021/03/20 12:54:39;;;;;;;9.37;3.70;;;7.20;60.40;;;;;;4974941;28;20504;-91
2021/03/20 12:57:05;;;;;;;7.17;3.30;;;7.30;59.50;;;;;;4976498;28;20034;-90
2021/03/20 12:59:30;;;;;;;8.30;3.33;;;7.40;61.00;;;;;;4975421;28;20077;-90
2021/03/20 13:01:56;;;;;;;9.63;3.40;;;7.40;59.00;;;;;;4975590;28;20515;-91
2021/03/20 13:04:23;;;;;;;9.97;3.67;;;7.40;59.60;;;;;;4975075;28;20034;-90
2021/03/20 13:06:48;;;;;;;12.57;3.63;;;7.40;59.30;;;;;;4975943;28;20057;-91
2021/03/20 13:09:15;;;;;;;10.23;3.67;;;7.50;59.20;;;;;;4971217;28;20684;-91
2021/03/20 13:11:40;;;;;;;10.23;3.97;;;7.60;59.50;;;;;;4974318;28;20030;-91
2021/03/20 13:14:07;;;;;;;10.33;4.27;;;7.60;59.40;;;;;;4971553;28;20038;-91
2021/03/20 13:16:34;;;;;;;18.90;7.90;;;7.70;60.20;;;;;;4971663;28;20026;-90
2021/03/20 13:19:00;;;;;;;20.80;8.40;;;7.70;60.30;;;;;;4973072;28;20873;-91
2021/03/20 13:21:26;;;;;;;16.83;5.93;;;7.70;59.40;;;;;;4974002;28;20041;-90
2021/03/20 13:23:52;;;;;;;16.00;6.40;;;7.80;59.90;;;;;;4975690;28;20026;-90
2021/03/20 13:26:18;;;;;;;12.27;4.83;;;7.90;59.90;;;;;;4976961;28;20060;-91
2021/03/20 13:28:44;;;;;;;13.53;4.80;;;8.00;59.40;;;;;;4978231;28;20089;-90
2021/03/20 13:31:10;;;;;;;14.53;4.80;;;8.10;59.70;;;;;;4979468;28;20362;-90
2021/03/20 13:33:36;;;;;;;11.33;4.27;;;8.20;59.80;;;;;;4985990;28;20038;-90
2021/03/20 13:36:03;;;;;;;13.63;4.80;;;8.20;59.70;;;;;;4980207;28;20039;-90
2021/03/20 13:38:29;;;;;;;17.77;7.80;;;8.20;59.10;;;;;;4980835;28;20049;-90